Time,TemperatureF,DewpointF,PressureIn,WindDirection,WindDirectionDegrees,WindSpeedMPH,WindSpeedGustMPH,Humidity,HourlyPrecipIn,Conditions,Clouds,dailyrainin,SoftwareType,DateUTC
2013-09-14 00:02:00,49.4,42.8,29.95,North,8,0.0,0.0,78,0.00,,CLR,0.00,VWS V14.01,2013-09-14 04:02:00,
2013-09-14 00:07:00,49.1,42.9,29.95,North,8,0.0,0.0,79,0.00,,CLR,0.00,VWS V14.01,2013-09-14 04:07:00,
2013-09-14 00:13:00,48.9,42.7,29.95,North,8,0.0,0.0,79,0.00,,CLR,0.00,VWS V14.01,2013-09-14 04:13:00,
2013-09-14 00:22:00,48.6,42.7,29.95,North,8,0.0,0.0,80,0.00,,CLR,0.00,VWS V14.01,2013-09-14 04:22:00,
2013-09-14 00:27:00,48.6,42.7,29.95,North,8,0.0,0.0,80,0.00,,CLR,0.00,VWS V14.01,2013-09-14 04:27:00,
2013-09-14 00:32:00,48.5,43.0,29.96,North,8,0.0,0.0,81,0.00,,CLR,0.00,VWS V14.01,2013-09-14 04:32:00,
2013-09-14 00:37:00,48.3,42.8,29.96,North,8,0.0,0.0,81,0.00,,CLR,0.00,VWS V14.01,2013-09-14 04:37:00,
2013-09-14 00:42:00,48.2,42.7,29.96,North,8,0.0,0.0,81,0.00,,CLR,0.00,VWS V14.01,2013-09-14 04:42:00,
2013-09-14 00:52:00,47.9,42.7,29.96,North,8,0.0,0.0,82,0.00,,CLR,0.00,VWS V14.01,2013-09-14 04:52:00,
2013-09-14 01:02:00,47.7,42.5,29.96,North,8,0.0,0.0,82,0.00,,CLR,0.00,VWS V14.01,2013-09-14 05:02:00,
2013-09-14 01:07:00,47.4,42.2,29.96,North,8,0.0,0.0,82,0.00,,CLR,0.00,VWS V14.01,2013-09-14 05:07:00,
2013-09-14 01:12:00,47.4,42.5,29.96,North,8,0.0,0.0,83,0.00,,CLR,0.00,VWS V14.01,2013-09-14 05:12:00,
2013-09-14 01:17:00,47.3,42.4,29.96,North,8,0.0,0.0,83,0.00,,CLR,0.00,VWS V14.01,2013-09-14 05:17:00,
2013-09-14 01:22:00,47.1,42.2,29.96,North,8,0.0,0.0,83,0.00,,CLR,0.00,VWS V14.01,2013-09-14 05:22:00,
2013-09-14 01:27:00,46.8,42.2,29.96,North,8,0.0,0.0,84,0.00,,CLR,0.00,VWS V14.01,2013-09-14 05:27:00,
2013-09-14 01:32:00,46.7,42.1,29.95,North,8,0.0,0.0,84,0.00,,CLR,0.00,VWS V14.01,2013-09-14 05:32:00,
2013-09-14 01:37:00,46.5,42.2,29.95,North,8,0.0,0.0,85,0.00,,CLR,0.00,VWS V14.01,2013-09-14 05:37:00,
2013-09-14 01:42:00,46.4,42.1,29.95,North,8,0.0,0.0,85,0.00,,CLR,0.00,VWS V14.01,2013-09-14 05:42:00,
2013-09-14 01:47:00,46.1,41.8,29.95,North,8,0.0,0.0,85,0.00,,CLR,0.00,VWS V14.01,2013-09-14 05:47:00,
2013-09-14 01:52:00,45.8,41.5,29.95,North,8,0.0,0.0,85,0.00,,CLR,0.00,VWS V14.01,2013-09-14 05:52:00,
2013-09-14 01:57:00,45.7,41.8,29.95,North,8,0.0,0.0,86,0.00,,CLR,0.00,VWS V14.01,2013-09-14 05:57:00,
2013-09-14 02:07:00,45.7,41.8,29.96,North,8,0.0,0.0,86,0.00,,CLR,0.00,VWS V14.01,2013-09-14 06:07:00,
2013-09-14 02:12:00,45.5,41.9,29.96,North,8,0.0,0.0,87,0.00,,CLR,0.00,VWS V14.01,2013-09-14 06:12:00,
2013-09-14 02:22:00,45.2,41.6,29.96,North,8,0.0,0.0,87,0.00,,CLR,0.00,VWS V14.01,2013-09-14 06:22:00,
2013-09-14 02:27:00,45.1,41.5,29.96,North,8,0.0,0.0,87,0.00,,CLR,0.00,VWS V14.01,2013-09-14 06:27:00,
2013-09-14 02:32:00,44.9,41.3,29.96,North,8,0.0,0.0,87,0.00,,CLR,0.00,VWS V14.01,2013-09-14 06:32:00,
2013-09-14 02:42:00,44.5,41.2,29.96,North,8,0.0,0.0,88,0.00,,CLR,0.00,VWS V14.01,2013-09-14 06:42:00,
2013-09-14 02:47:00,44.5,41.2,29.96,North,8,0.0,0.0,88,0.00,,CLR,0.00,VWS V14.01,2013-09-14 06:47:00,
2013-09-14 02:57:00,44.3,41.3,29.96,North,8,0.0,0.0,89,0.00,,CLR,0.00,VWS V14.01,2013-09-14 06:57:00,
2013-09-14 03:02:00,44.2,41.2,29.97,North,8,0.0,0.0,89,0.00,,CLR,0.00,VWS V14.01,2013-09-14 07:02:00,
2013-09-14 03:07:00,44.2,41.2,29.97,North,8,0.0,0.0,89,0.00,,CLR,0.00,VWS V14.01,2013-09-14 07:07:00,
2013-09-14 03:17:00,44.1,41.1,29.96,North,8,0.0,0.0,89,0.00,,CLR,0.00,VWS V14.01,2013-09-14 07:17:00,
2013-09-14 03:22:00,43.9,40.9,29.96,North,8,0.0,0.0,89,0.00,,CLR,0.00,VWS V14.01,2013-09-14 07:22:00,
2013-09-14 03:27:00,43.9,41.2,29.96,North,8,0.0,0.0,90,0.00,,CLR,0.00,VWS V14.01,2013-09-14 07:27:00,
2013-09-14 03:32:00,43.9,41.2,29.96,North,8,0.0,0.0,90,0.00,,CLR,0.00,VWS V14.01,2013-09-14 07:32:00,
2013-09-14 03:37:00,43.9,41.2,29.96,North,8,0.0,0.0,90,0.00,,CLR,0.00,VWS V14.01,2013-09-14 07:37:00,
2013-09-14 03:42:00,43.9,41.2,29.96,North,8,0.0,0.0,90,0.00,,CLR,0.00,VWS V14.01,2013-09-14 07:42:00,
2013-09-14 03:47:00,44.1,41.4,29.97,North,8,0.0,0.0,90,0.00,,CLR,0.00,VWS V14.01,2013-09-14 07:47:00,
2013-09-14 03:52:00,44.1,41.4,29.97,North,8,0.0,1.0,90,0.00,,CLR,0.00,VWS V14.01,2013-09-14 07:52:00,
2013-09-14 03:57:00,43.9,41.2,29.97,North,8,0.0,0.0,90,0.00,,CLR,0.00,VWS V14.01,2013-09-14 07:57:00,
2013-09-14 04:02:00,43.5,40.8,29.97,North,8,0.0,0.0,90,0.00,,CLR,0.00,VWS V14.01,2013-09-14 08:02:00,
2013-09-14 04:12:00,42.9,40.2,29.97,North,8,0.0,0.0,90,0.00,,CLR,0.00,VWS V14.01,2013-09-14 08:12:00,
2013-09-14 04:17:00,43.1,40.7,29.97,North,8,0.0,0.0,91,0.00,,CLR,0.00,VWS V14.01,2013-09-14 08:17:00,
2013-09-14 04:22:00,43.1,40.7,29.97,North,8,0.0,0.0,91,0.00,,CLR,0.00,VWS V14.01,2013-09-14 08:22:00,
2013-09-14 04:27:00,43.1,40.7,29.97,North,8,0.0,0.0,91,0.00,,CLR,0.00,VWS V14.01,2013-09-14 08:27:00,
2013-09-14 04:37:00,42.9,40.5,29.96,North,8,0.0,0.0,91,0.00,,CLR,0.00,VWS V14.01,2013-09-14 08:37:00,
2013-09-14 04:42:00,42.6,40.2,29.96,North,8,0.0,0.0,91,0.00,,CLR,0.00,VWS V14.01,2013-09-14 08:42:00,
2013-09-14 04:52:00,42.2,39.8,29.97,North,8,0.0,0.0,91,0.00,,CLR,0.00,VWS V14.01,2013-09-14 08:52:00,
2013-09-14 04:57:00,42.1,39.7,29.97,North,8,0.0,1.0,91,0.00,,CLR,0.00,VWS V14.01,2013-09-14 08:57:00,
2013-09-14 05:02:00,42.2,39.8,29.97,North,8,0.0,0.0,91,0.00,,CLR,0.00,VWS V14.01,2013-09-14 09:02:00,
2013-09-14 05:07:00,42.2,39.8,29.97,North,8,0.0,0.0,91,0.00,,CLR,0.00,VWS V14.01,2013-09-14 09:07:00,
2013-09-14 05:12:00,42.1,39.7,29.97,North,8,0.0,0.0,91,0.00,,CLR,0.00,VWS V14.01,2013-09-14 09:12:00,
2013-09-14 05:17:00,42.1,39.7,29.98,North,8,0.0,0.0,91,0.00,,CLR,0.00,VWS V14.01,2013-09-14 09:17:00,
2013-09-14 05:22:00,42.1,40.0,29.98,North,8,0.0,0.0,92,0.00,,CLR,0.00,VWS V14.01,2013-09-14 09:22:00,
2013-09-14 05:32:00,41.9,39.5,29.98,North,8,0.0,0.0,91,0.00,,CLR,0.00,VWS V14.01,2013-09-14 09:32:00,
2013-09-14 05:37:00,41.9,39.8,29.98,North,8,0.0,0.0,92,0.00,,CLR,0.00,VWS V14.01,2013-09-14 09:37:00,
2013-09-14 05:42:00,41.9,39.8,29.98,North,8,0.0,0.0,92,0.00,,CLR,0.00,VWS V14.01,2013-09-14 09:42:00,
2013-09-14 05:52:00,41.3,39.2,29.98,North,8,0.0,0.0,92,0.00,,CLR,0.00,VWS V14.01,2013-09-14 09:52:00,
2013-09-14 05:57:00,41.2,39.1,29.98,North,8,0.0,0.0,92,0.00,,CLR,0.00,VWS V14.01,2013-09-14 09:57:00,
2013-09-14 06:02:00,40.9,38.8,29.98,North,8,0.0,0.0,92,0.00,,CLR,0.00,VWS V14.01,2013-09-14 10:02:00,
2013-09-14 06:07:00,40.9,38.8,29.98,North,8,0.0,0.0,92,0.00,,CLR,0.00,VWS V14.01,2013-09-14 10:07:00,
2013-09-14 06:12:00,41.1,39.0,29.98,North,8,0.0,0.0,92,0.00,,CLR,0.00,VWS V14.01,2013-09-14 10:12:00,
2013-09-14 06:17:00,41.1,39.0,29.98,North,8,0.0,0.0,92,0.00,,CLR,0.00,VWS V14.01,2013-09-14 10:17:00,
2013-09-14 06:22:00,40.9,38.8,29.98,North,8,0.0,0.0,92,0.00,,CLR,0.00,VWS V14.01,2013-09-14 10:22:00,
2013-09-14 06:27:00,40.8,38.7,29.98,North,8,0.0,0.0,92,0.00,,CLR,0.00,VWS V14.01,2013-09-14 10:27:00,
2013-09-14 06:32:00,40.6,38.5,29.99,North,8,0.0,0.0,92,0.00,,CLR,0.00,VWS V14.01,2013-09-14 10:32:00,
2013-09-14 06:37:00,40.3,38.2,29.99,North,8,0.0,0.0,92,0.00,,CLR,0.00,VWS V14.01,2013-09-14 10:37:00,
2013-09-14 06:47:00,40.1,38.0,29.99,North,8,0.0,0.0,92,0.00,,CLR,0.00,VWS V14.01,2013-09-14 10:47:00,
2013-09-14 06:52:00,39.9,37.8,29.99,North,8,0.0,0.0,92,0.00,,CLR,0.00,VWS V14.01,2013-09-14 10:52:00,
2013-09-14 06:57:00,39.9,37.8,29.99,North,8,0.0,0.0,92,0.00,,CLR,0.00,VWS V14.01,2013-09-14 10:57:00,
2013-09-14 07:02:00,39.9,37.8,29.99,North,8,0.0,0.0,92,0.00,,CLR,0.00,VWS V14.01,2013-09-14 11:02:00,
2013-09-14 07:12:00,39.6,37.5,29.99,North,8,0.0,0.0,92,0.00,,CLR,0.00,VWS V14.01,2013-09-14 11:12:00,
2013-09-14 07:22:00,39.6,37.5,30.00,North,8,0.0,0.0,92,0.00,,CLR,0.00,VWS V14.01,2013-09-14 11:22:00,
2013-09-14 07:27:00,39.6,37.5,30.00,North,8,0.0,0.0,92,0.00,,CLR,0.00,VWS V14.01,2013-09-14 11:27:00,
2013-09-14 07:32:00,39.6,37.5,30.00,North,8,0.0,0.0,92,0.00,,CLR,0.00,VWS V14.01,2013-09-14 11:32:00,
2013-09-14 07:42:00,40.3,38.4,30.00,North,8,0.0,0.0,93,0.00,,CLR,0.00,VWS V14.01,2013-09-14 11:42:00,
2013-09-14 07:47:00,40.9,39.0,30.00,North,8,0.0,0.0,93,0.00,,CLR,0.00,VWS V14.01,2013-09-14 11:47:00,
2013-09-14 07:52:00,41.3,39.4,30.00,North,8,0.0,0.0,93,0.00,,CLR,0.00,VWS V14.01,2013-09-14 11:52:00,
2013-09-14 07:57:00,41.6,39.7,30.00,North,8,0.0,0.0,93,0.00,,CLR,0.00,VWS V14.01,2013-09-14 11:57:00,
2013-09-14 08:02:00,42.2,40.3,30.00,North,8,0.0,0.0,93,0.00,,CLR,0.00,VWS V14.01,2013-09-14 12:02:00,
2013-09-14 08:07:00,42.6,40.7,30.00,North,8,0.0,0.0,93,0.00,,CLR,0.00,VWS V14.01,2013-09-14 12:07:00,
2013-09-14 08:12:00,43.1,41.2,30.00,North,8,0.0,0.0,93,0.00,,CLR,0.00,VWS V14.01,2013-09-14 12:12:00,
2013-09-14 08:17:00,43.8,42.2,30.01,North,8,0.0,0.0,94,0.00,,CLR,0.00,VWS V14.01,2013-09-14 12:17:00,
2013-09-14 08:22:00,44.2,42.6,30.01,North,8,0.0,1.0,94,0.00,,CLR,0.00,VWS V14.01,2013-09-14 12:22:00,
2013-09-14 08:27:00,44.6,42.7,30.01,North,8,0.0,0.0,93,0.00,,CLR,0.00,VWS V14.01,2013-09-14 12:27:00,
2013-09-14 08:32:00,45.4,43.5,30.01,North,8,0.0,0.0,93,0.00,,CLR,0.00,VWS V14.01,2013-09-14 12:32:00,
2013-09-14 08:37:00,45.8,43.9,30.01,North,8,0.0,1.0,93,0.00,,CLR,0.00,VWS V14.01,2013-09-14 12:37:00,
2013-09-14 08:42:00,46.2,44.3,30.01,North,8,0.0,0.0,93,0.00,,CLR,0.00,VWS V14.01,2013-09-14 12:42:00,
2013-09-14 08:47:00,46.7,44.8,30.01,North,8,0.0,0.0,93,0.00,,CLR,0.00,VWS V14.01,2013-09-14 12:47:00,
2013-09-14 08:52:00,47.0,44.8,30.01,North,8,0.0,0.0,92,0.00,,CLR,0.00,VWS V14.01,2013-09-14 12:52:00,
2013-09-14 08:57:00,47.7,45.5,30.01,North,8,0.0,0.0,92,0.00,,CLR,0.00,VWS V14.01,2013-09-14 12:57:00,
2013-09-14 09:02:00,48.6,46.4,30.01,North,8,0.0,0.0,92,0.00,,CLR,0.00,VWS V14.01,2013-09-14 13:02:00,
2013-09-14 09:07:00,49.2,46.7,30.01,North,8,0.0,0.0,91,0.00,,CLR,0.00,VWS V14.01,2013-09-14 13:07:00,
2013-09-14 09:17:00,51.1,48.0,30.01,North,8,0.0,0.0,89,0.00,,CLR,0.00,VWS V14.01,2013-09-14 13:17:00,
2013-09-14 09:22:00,52.2,48.5,30.01,North,8,0.0,0.0,87,0.00,,CLR,0.00,VWS V14.01,2013-09-14 13:22:00,
2013-09-14 09:27:00,52.6,47.9,30.01,North,8,0.0,0.0,84,0.00,,CLR,0.00,VWS V14.01,2013-09-14 13:27:00,
2013-09-14 09:32:00,52.9,47.2,30.02,North,8,0.0,0.0,81,0.00,,CLR,0.00,VWS V14.01,2013-09-14 13:32:00,
2013-09-14 09:37:00,52.6,46.6,30.02,North,8,0.0,0.0,80,0.00,,CLR,0.00,VWS V14.01,2013-09-14 13:37:00,
2013-09-14 09:47:00,53.1,45.8,30.02,North,8,0.0,1.0,76,0.00,,CLR,0.00,VWS V14.01,2013-09-14 13:47:00,
2013-09-14 09:52:00,53.5,45.8,30.02,North,8,0.0,1.0,75,0.00,,CLR,0.00,VWS V14.01,2013-09-14 13:52:00,
2013-09-14 09:57:00,54.5,44.2,30.02,SE,138,0.0,1.0,68,0.00,,CLR,0.00,VWS V14.01,2013-09-14 13:57:00,
2013-09-14 10:07:00,56.9,42.3,30.02,ESE,110,0.0,0.0,58,0.00,,CLR,0.00,VWS V14.01,2013-09-14 14:07:00,
2013-09-14 10:12:00,57.3,42.7,30.02,ESE,110,0.0,0.0,58,0.00,,CLR,0.00,VWS V14.01,2013-09-14 14:12:00,
2013-09-14 10:17:00,58.0,41.9,30.02,ESE,112,0.0,1.0,55,0.00,,CLR,0.00,VWS V14.01,2013-09-14 14:17:00,
2013-09-14 10:27:00,57.3,42.7,30.02,SE,127,0.0,0.0,58,0.00,,CLR,0.00,VWS V14.01,2013-09-14 14:27:00,
2013-09-14 10:32:00,57.8,40.8,30.02,SSW,195,0.0,0.0,53,0.00,,CLR,0.00,VWS V14.01,2013-09-14 14:32:00,
2013-09-14 10:37:00,58.3,42.2,30.02,SE,138,0.0,1.0,55,0.00,,CLR,0.00,VWS V14.01,2013-09-14 14:37:00,
2013-09-14 10:47:00,59.2,41.1,30.02,SE,136,0.0,0.0,51,0.00,,CLR,0.00,VWS V14.01,2013-09-14 14:47:00,
2013-09-14 10:52:00,58.1,41.1,30.02,SE,144,0.0,0.0,53,0.00,,CLR,0.00,VWS V14.01,2013-09-14 14:52:00,
2013-09-14 10:57:00,58.4,41.3,30.02,SE,143,0.0,0.0,53,0.00,,CLR,0.00,VWS V14.01,2013-09-14 14:57:00,
2013-09-14 11:07:00,60.9,40.5,30.02,SE,128,0.0,0.0,47,0.00,,CLR,0.00,VWS V14.01,2013-09-14 15:07:00,
2013-09-14 11:12:00,61.6,40.6,30.02,SE,124,0.0,0.0,46,0.00,,CLR,0.00,VWS V14.01,2013-09-14 15:12:00,
2013-09-14 11:17:00,62.0,40.4,30.02,ESE,120,0.0,0.0,45,0.00,,CLR,0.00,VWS V14.01,2013-09-14 15:17:00,
2013-09-14 11:27:00,60.9,41.6,30.02,SE,128,0.0,1.0,49,0.00,,CLR,0.00,VWS V14.01,2013-09-14 15:27:00,
2013-09-14 11:32:00,61.8,40.3,30.01,SE,136,0.0,0.0,45,0.00,,CLR,0.00,VWS V14.01,2013-09-14 15:32:00,
2013-09-14 11:42:00,60.5,40.7,30.01,SSE,152,0.0,0.0,48,0.00,,CLR,0.00,VWS V14.01,2013-09-14 15:42:00,
2013-09-14 11:47:00,62.4,39.0,30.01,SE,131,0.0,0.0,42,0.00,,CLR,0.00,VWS V14.01,2013-09-14 15:47:00,
2013-09-14 11:52:00,62.7,38.7,30.01,ESE,114,0.0,0.0,41,0.00,,CLR,0.00,VWS V14.01,2013-09-14 15:52:00,
2013-09-14 11:57:00,63.2,38.5,30.01,ESE,116,0.0,0.0,40,0.00,,CLR,0.00,VWS V14.01,2013-09-14 15:57:00,
2013-09-14 12:02:00,63.1,38.4,30.01,ESE,119,0.0,0.0,40,0.00,,CLR,0.00,VWS V14.01,2013-09-14 16:02:00,
2013-09-14 12:12:00,63.2,37.9,30.01,ESE,119,0.0,0.0,39,0.00,,CLR,0.00,VWS V14.01,2013-09-14 16:12:00,
2013-09-14 12:22:00,64.3,38.2,30.01,South,175,0.0,0.0,38,0.00,,CLR,0.00,VWS V14.01,2013-09-14 16:22:00,
2013-09-14 12:27:00,63.4,38.7,30.01,South,175,0.0,0.0,40,0.00,,CLR,0.00,VWS V14.01,2013-09-14 16:27:00,
2013-09-14 12:32:00,64.5,36.3,30.01,SE,128,0.0,0.0,35,0.00,,CLR,0.00,VWS V14.01,2013-09-14 16:32:00,
2013-09-14 12:37:00,65.3,37.0,30.01,ESE,113,0.0,0.0,35,0.00,,CLR,0.00,VWS V14.01,2013-09-14 16:37:00,
2013-09-14 12:42:00,65.5,35.7,30.01,ESE,116,0.0,0.0,33,0.00,,CLR,0.00,VWS V14.01,2013-09-14 16:42:00,
2013-09-14 12:52:00,66.0,36.1,30.01,ESE,112,0.0,0.0,33,0.00,,CLR,0.00,VWS V14.01,2013-09-14 16:52:00,
2013-09-14 12:57:00,66.0,34.5,30.01,ESE,109,0.0,0.0,31,0.00,,CLR,0.00,VWS V14.01,2013-09-14 16:57:00,
2013-09-14 13:02:00,66.3,34.8,30.00,East,93,0.0,0.0,31,0.00,,CLR,0.00,VWS V14.01,2013-09-14 17:02:00,
2013-09-14 13:07:00,67.3,34.0,30.00,ESE,106,0.0,0.0,29,0.00,,CLR,0.00,VWS V14.01,2013-09-14 17:07:00,
2013-09-14 13:12:00,67.4,32.3,30.00,ESE,110,0.0,0.0,27,0.00,,CLR,0.00,VWS V14.01,2013-09-14 17:12:00,
2013-09-14 13:17:00,67.8,33.5,30.00,SE,137,0.0,0.0,28,0.00,,CLR,0.00,VWS V14.01,2013-09-14 17:17:00,
2013-09-14 13:22:00,65.0,31.1,30.00,SW,215,0.0,0.0,28,0.00,,CLR,0.00,VWS V14.01,2013-09-14 17:22:00,
2013-09-14 13:27:00,64.7,34.2,30.00,SE,145,0.0,0.0,32,0.00,,CLR,0.00,VWS V14.01,2013-09-14 17:27:00,
2013-09-14 13:32:00,66.0,34.5,29.99,ESE,113,0.0,0.0,31,0.00,,CLR,0.00,VWS V14.01,2013-09-14 17:32:00,
2013-09-14 13:37:00,66.8,32.7,29.99,South,171,0.0,0.0,28,0.00,,CLR,0.00,VWS V14.01,2013-09-14 17:37:00,
2013-09-14 13:47:00,65.2,33.8,29.99,SE,126,0.0,0.0,31,0.00,,CLR,0.00,VWS V14.01,2013-09-14 17:47:00,
2013-09-14 13:52:00,66.3,33.1,29.99,SE,127,0.0,0.0,29,0.00,,CLR,0.00,VWS V14.01,2013-09-14 17:52:00,
2013-09-14 13:57:00,66.9,34.5,29.99,South,184,0.0,0.0,30,0.00,,CLR,0.00,VWS V14.01,2013-09-14 17:57:00,
2013-09-14 14:02:00,66.3,34.8,29.99,South,182,0.0,0.0,31,0.00,,CLR,0.00,VWS V14.01,2013-09-14 18:02:00,
2013-09-14 14:07:00,66.1,33.8,29.99,SSW,195,0.0,0.0,30,0.00,,CLR,0.00,VWS V14.01,2013-09-14 18:07:00,
2013-09-14 14:12:00,65.0,34.5,29.99,SW,216,0.0,0.0,32,0.00,,CLR,0.00,VWS V14.01,2013-09-14 18:12:00,
2013-09-14 14:17:00,66.3,34.8,29.98,SE,126,0.0,0.0,31,0.00,,CLR,0.00,VWS V14.01,2013-09-14 18:17:00,
2013-09-14 14:22:00,67.9,35.3,29.98,South,182,0.0,0.0,30,0.00,,CLR,0.00,VWS V14.01,2013-09-14 18:22:00,
2013-09-14 14:27:00,68.1,33.8,29.98,SE,137,0.0,0.0,28,0.00,,CLR,0.00,VWS V14.01,2013-09-14 18:27:00,
2013-09-14 14:37:00,66.0,35.3,29.97,East,80,0.0,0.0,32,0.00,,CLR,0.00,VWS V14.01,2013-09-14 18:37:00,
2013-09-14 14:42:00,67.3,34.8,29.97,SE,127,0.0,0.0,30,0.00,,CLR,0.00,VWS V14.01,2013-09-14 18:42:00,
2013-09-14 14:52:00,69.4,34.9,29.97,ESE,119,0.0,0.0,28,0.00,,CLR,0.00,VWS V14.01,2013-09-14 18:52:00,
2013-09-14 15:02:00,68.8,33.5,29.96,ESE,106,0.0,0.0,27,0.00,,CLR,0.00,VWS V14.01,2013-09-14 19:02:00,
2013-09-14 15:07:00,69.8,33.4,29.96,ESE,112,0.0,0.0,26,0.00,,CLR,0.00,VWS V14.01,2013-09-14 19:07:00,
2013-09-14 15:12:00,70.1,32.7,29.96,ESE,109,0.0,0.0,25,0.00,,CLR,0.00,VWS V14.01,2013-09-14 19:12:00,
2013-09-14 15:17:00,69.9,34.4,29.95,ESE,121,0.0,1.0,27,0.00,,CLR,0.00,VWS V14.01,2013-09-14 19:17:00,
2013-09-14 15:22:00,70.1,33.7,29.95,ESE,120,0.0,0.0,26,0.00,,CLR,0.00,VWS V14.01,2013-09-14 19:22:00,
2013-09-14 15:32:00,70.1,33.7,29.94,SSW,192,0.0,0.0,26,0.00,,CLR,0.00,VWS V14.01,2013-09-14 19:32:00,
2013-09-14 15:37:00,70.3,33.8,29.94,SE,145,0.0,0.0,26,0.00,,CLR,0.00,VWS V14.01,2013-09-14 19:37:00,
2013-09-14 15:42:00,70.3,34.8,29.94,SSE,147,0.0,0.0,27,0.00,,CLR,0.00,VWS V14.01,2013-09-14 19:42:00,
2013-09-14 15:47:00,70.4,33.9,29.94,ESE,116,0.0,0.0,26,0.00,,CLR,0.00,VWS V14.01,2013-09-14 19:47:00,
2013-09-14 15:52:00,70.9,34.3,29.94,ESE,114,0.0,0.0,26,0.00,,CLR,0.00,VWS V14.01,2013-09-14 19:52:00,
2013-09-14 15:57:00,70.9,34.3,29.94,ESE,106,0.0,0.0,26,0.00,,CLR,0.00,VWS V14.01,2013-09-14 19:57:00,
2013-09-14 16:02:00,71.1,35.5,29.93,SE,131,0.0,0.0,27,0.00,,CLR,0.00,VWS V14.01,2013-09-14 20:02:00,
2013-09-14 16:07:00,71.1,34.5,29.93,ESE,123,0.0,0.0,26,0.00,,CLR,0.00,VWS V14.01,2013-09-14 20:07:00,
2013-09-14 16:12:00,71.6,34.9,29.93,SE,126,0.0,0.0,26,0.00,,CLR,0.00,VWS V14.01,2013-09-14 20:12:00,
2013-09-14 16:17:00,72.3,35.5,29.93,SE,128,0.0,0.0,26,0.00,,CLR,0.00,VWS V14.01,2013-09-14 20:17:00,
2013-09-14 16:22:00,71.6,32.9,29.93,SW,220,0.0,0.0,24,0.00,,CLR,0.00,VWS V14.01,2013-09-14 20:22:00,
2013-09-14 16:32:00,70.1,33.7,29.93,South,191,0.0,0.0,26,0.00,,CLR,0.00,VWS V14.01,2013-09-14 20:32:00,
2013-09-14 16:42:00,70.4,32.9,29.93,South,169,0.0,0.0,25,0.00,,CLR,0.00,VWS V14.01,2013-09-14 20:42:00,
2013-09-14 16:52:00,70.6,34.1,29.93,South,184,0.0,0.0,26,0.00,,CLR,0.00,VWS V14.01,2013-09-14 20:52:00,
2013-09-14 16:57:00,70.1,34.6,29.93,South,184,0.0,0.0,27,0.00,,CLR,0.00,VWS V14.01,2013-09-14 20:57:00,
2013-09-14 17:02:00,69.3,33.9,29.93,South,189,0.0,0.0,27,0.00,,CLR,0.00,VWS V14.01,2013-09-14 21:02:00,
2013-09-14 17:12:00,70.3,33.8,29.93,South,189,0.0,0.0,26,0.00,,CLR,0.00,VWS V14.01,2013-09-14 21:12:00,
2013-09-14 17:17:00,71.1,34.5,29.93,South,189,0.0,0.0,26,0.00,,CLR,0.00,VWS V14.01,2013-09-14 21:17:00,
2013-09-14 17:22:00,70.3,33.8,29.93,South,189,0.0,0.0,26,0.00,,CLR,0.00,VWS V14.01,2013-09-14 21:22:00,
2013-09-14 17:32:00,71.3,33.7,29.92,ESE,114,0.0,0.0,25,0.00,,CLR,0.00,VWS V14.01,2013-09-14 21:32:00,
2013-09-14 17:37:00,71.3,32.7,29.92,ESE,114,0.0,0.0,24,0.00,,CLR,0.00,VWS V14.01,2013-09-14 21:37:00,
2013-09-14 17:42:00,69.9,33.5,29.92,SSW,193,0.0,0.0,26,0.00,,CLR,0.00,VWS V14.01,2013-09-14 21:42:00,
2013-09-14 17:47:00,68.6,32.4,29.92,SSW,193,0.0,0.0,26,0.00,,CLR,0.00,VWS V14.01,2013-09-14 21:47:00,
2013-09-14 17:52:00,68.4,32.2,29.92,SSW,193,0.0,0.0,26,0.00,,CLR,0.00,VWS V14.01,2013-09-14 21:52:00,
2013-09-14 17:57:00,69.6,33.2,29.92,SSW,193,0.0,0.0,26,0.00,,CLR,0.00,VWS V14.01,2013-09-14 21:57:00,
2013-09-14 18:07:00,68.9,33.6,29.93,SSW,193,0.0,0.0,27,0.00,,CLR,0.00,VWS V14.01,2013-09-14 22:07:00,
2013-09-14 18:12:00,67.9,31.8,29.93,SSW,193,0.0,0.0,26,0.00,,CLR,0.00,VWS V14.01,2013-09-14 22:12:00,
2013-09-14 18:22:00,68.8,34.4,29.93,SSW,193,0.0,0.0,28,0.00,,CLR,0.00,VWS V14.01,2013-09-14 22:22:00,
2013-09-14 18:27:00,69.8,33.4,29.93,SSW,193,0.0,0.0,26,0.00,,CLR,0.00,VWS V14.01,2013-09-14 22:27:00,
2013-09-14 18:32:00,70.4,32.9,29.93,SSW,193,0.0,0.0,25,0.00,,CLR,0.00,VWS V14.01,2013-09-14 22:32:00,
2013-09-14 18:37:00,71.5,32.8,29.93,SSW,193,0.0,0.0,24,0.00,,CLR,0.00,VWS V14.01,2013-09-14 22:37:00,
2013-09-14 18:42:00,71.1,32.5,29.93,SSW,193,0.0,0.0,24,0.00,,CLR,0.00,VWS V14.01,2013-09-14 22:42:00,
2013-09-14 18:52:00,69.3,33.0,29.92,SSW,193,0.0,0.0,26,0.00,,CLR,0.00,VWS V14.01,2013-09-14 22:52:00,
2013-09-14 18:57:00,69.3,33.9,29.92,SSW,193,0.0,0.0,27,0.00,,CLR,0.00,VWS V14.01,2013-09-14 22:57:00,
2013-09-14 19:02:00,68.6,34.2,29.92,SSW,193,0.0,0.0,28,0.00,,CLR,0.00,VWS V14.01,2013-09-14 23:02:00,
2013-09-14 19:07:00,67.6,34.2,29.92,SSW,193,0.0,0.0,29,0.00,,CLR,0.00,VWS V14.01,2013-09-14 23:07:00,
2013-09-14 19:12:00,67.4,33.2,29.92,SSW,193,0.0,0.0,28,0.00,,CLR,0.00,VWS V14.01,2013-09-14 23:12:00,
2013-09-14 19:17:00,67.4,34.1,29.92,SSW,193,0.0,0.0,29,0.00,,CLR,0.00,VWS V14.01,2013-09-14 23:17:00,
2013-09-14 19:22:00,67.1,34.7,29.92,SSW,193,0.0,0.0,30,0.00,,CLR,0.00,VWS V14.01,2013-09-14 23:22:00,
2013-09-14 19:27:00,66.4,34.9,29.92,SSW,193,0.0,0.0,31,0.00,,CLR,0.00,VWS V14.01,2013-09-14 23:27:00,
2013-09-14 19:32:00,66.0,35.3,29.91,SSW,193,0.0,0.0,32,0.00,,CLR,0.00,VWS V14.01,2013-09-14 23:32:00,
2013-09-14 19:37:00,65.6,35.8,29.91,SSW,193,0.0,0.0,33,0.00,,CLR,0.00,VWS V14.01,2013-09-14 23:37:00,
2013-09-14 19:47:00,64.2,36.0,29.91,SSW,193,0.0,0.0,35,0.00,,CLR,0.00,VWS V14.01,2013-09-14 23:47:00,
2013-09-14 19:57:00,62.9,36.9,29.91,SSW,193,0.0,1.0,38,0.00,,CLR,0.00,VWS V14.01,2013-09-14 23:57:00,
2013-09-14 20:02:00,62.3,37.7,29.91,SSW,193,0.0,0.0,40,0.00,,CLR,0.00,VWS V14.01,2013-09-15 00:02:00,
2013-09-14 20:07:00,61.8,39.1,29.91,SSW,193,0.0,0.0,43,0.00,,CLR,0.00,VWS V14.01,2013-09-15 00:07:00,
2013-09-14 20:12:00,61.3,39.8,29.91,SSW,193,0.0,0.0,45,0.00,,CLR,0.00,VWS V14.01,2013-09-15 00:12:00,
2013-09-14 20:17:00,61.2,40.3,29.91,South,182,0.0,0.0,46,0.00,,CLR,0.00,VWS V14.01,2013-09-15 00:17:00,
2013-09-14 20:22:00,61.0,40.7,29.91,SSW,193,0.0,0.0,47,0.00,,CLR,0.00,VWS V14.01,2013-09-15 00:22:00,
2013-09-14 20:27:00,60.7,42.5,29.91,SSW,193,0.0,0.0,51,0.00,,CLR,0.00,VWS V14.01,2013-09-15 00:27:00,
2013-09-14 20:32:00,60.1,41.9,29.92,SSW,193,0.0,0.0,51,0.00,,CLR,0.00,VWS V14.01,2013-09-15 00:32:00,
2013-09-14 20:42:00,59.6,43.0,29.92,South,182,0.0,0.0,54,0.00,,CLR,0.00,VWS V14.01,2013-09-15 00:42:00,
2013-09-14 20:47:00,59.3,43.2,29.92,SSW,193,0.0,0.0,55,0.00,,CLR,0.00,VWS V14.01,2013-09-15 00:47:00,
2013-09-14 20:52:00,59.0,43.3,29.92,SSW,193,0.0,0.0,56,0.00,,CLR,0.00,VWS V14.01,2013-09-15 00:52:00,
2013-09-14 21:02:00,57.3,41.8,29.92,SSW,193,0.0,0.0,56,0.00,,CLR,0.00,VWS V14.01,2013-09-15 01:02:00,
2013-09-14 21:12:00,56.6,41.6,29.92,SSW,193,0.0,0.0,57,0.00,,CLR,0.00,VWS V14.01,2013-09-15 01:12:00,
2013-09-14 21:17:00,56.2,42.1,29.91,SSW,193,0.0,0.0,59,0.00,,CLR,0.00,VWS V14.01,2013-09-15 01:17:00,
2013-09-14 21:22:00,55.7,41.6,29.91,SSW,193,0.0,0.0,59,0.00,,CLR,0.00,VWS V14.01,2013-09-15 01:22:00,
2013-09-14 21:27:00,55.4,41.3,29.91,SSW,193,0.0,0.0,59,0.00,,CLR,0.00,VWS V14.01,2013-09-15 01:27:00,
2013-09-14 21:32:00,55.1,41.5,29.91,South,182,0.0,0.0,60,0.00,,CLR,0.00,VWS V14.01,2013-09-15 01:32:00,
2013-09-14 21:37:00,55.0,41.0,29.91,SSW,193,0.0,0.0,59,0.00,,CLR,0.00,VWS V14.01,2013-09-15 01:37:00,
2013-09-14 21:42:00,54.8,41.6,29.91,SSW,193,0.0,0.0,61,0.00,,CLR,0.00,VWS V14.01,2013-09-15 01:42:00,
2013-09-14 21:47:00,54.5,41.3,29.92,SSW,193,0.0,1.0,61,0.00,,CLR,0.00,VWS V14.01,2013-09-15 01:47:00,
2013-09-14 21:52:00,54.4,41.7,29.92,SSW,193,0.0,0.0,62,0.00,,CLR,0.00,VWS V14.01,2013-09-15 01:52:00,
2013-09-14 22:02:00,53.6,42.1,29.92,SSW,193,0.0,0.0,65,0.00,,CLR,0.00,VWS V14.01,2013-09-15 02:02:00,
2013-09-14 22:07:00,53.3,42.2,29.92,SSW,193,0.0,0.0,66,0.00,,CLR,0.00,VWS V14.01,2013-09-15 02:07:00,
2013-09-14 22:17:00,52.0,42.5,29.92,SSW,193,0.0,0.0,70,0.00,,CLR,0.00,VWS V14.01,2013-09-15 02:17:00,
2013-09-14 22:22:00,51.3,42.6,29.92,South,181,0.0,0.0,72,0.00,,CLR,0.00,VWS V14.01,2013-09-15 02:22:00,
2013-09-14 22:27:00,51.0,42.3,29.92,SSW,193,0.0,0.0,72,0.00,,CLR,0.00,VWS V14.01,2013-09-15 02:27:00,
2013-09-14 22:32:00,50.8,42.5,29.91,SSW,193,0.0,0.0,73,0.00,,CLR,0.00,VWS V14.01,2013-09-15 02:32:00,
2013-09-14 22:37:00,50.5,42.5,29.91,SSW,193,0.0,0.0,74,0.00,,CLR,0.00,VWS V14.01,2013-09-15 02:37:00,
2013-09-14 22:42:00,50.4,42.8,29.91,SSW,193,0.0,0.0,75,0.00,,CLR,0.00,VWS V14.01,2013-09-15 02:42:00,
2013-09-14 22:47:00,50.5,42.5,29.91,South,181,0.0,0.0,74,0.00,,CLR,0.00,VWS V14.01,2013-09-15 02:47:00,
2013-09-14 22:52:00,50.5,42.2,29.91,SSW,193,0.0,0.0,73,0.00,,CLR,0.00,VWS V14.01,2013-09-15 02:52:00,
2013-09-14 22:57:00,51.3,42.2,29.91,SSW,193,0.0,0.0,71,0.00,,CLR,0.00,VWS V14.01,2013-09-15 02:57:00,
2013-09-14 23:07:00,51.0,42.7,29.91,SSW,193,0.0,0.0,73,0.00,,CLR,0.00,VWS V14.01,2013-09-15 03:07:00,
2013-09-14 23:12:00,50.8,42.5,29.91,SSW,193,0.0,0.0,73,0.00,,CLR,0.00,VWS V14.01,2013-09-15 03:12:00,
2013-09-14 23:22:00,50.2,42.6,29.91,SSW,193,0.0,0.0,75,0.00,,CLR,0.00,VWS V14.01,2013-09-15 03:22:00,
2013-09-14 23:27:00,50.1,42.5,29.91,SSW,193,0.0,0.0,75,0.00,,CLR,0.00,VWS V14.01,2013-09-15 03:27:00,
2013-09-14 23:37:00,49.5,42.3,29.90,South,181,0.0,0.0,76,0.00,,CLR,0.00,VWS V14.01,2013-09-15 03:37:00,
2013-09-14 23:47:00,48.9,42.3,29.90,SSW,193,0.0,0.0,78,0.00,,CLR,0.00,VWS V14.01,2013-09-15 03:47:00,
2013-09-14 23:57:00,48.5,42.3,29.90,SSW,193,0.0,1.0,79,0.00,,CLR,0.00,VWS V14.01,2013-09-15 03:57:00,